sensor_id;sensor_type;location;lat;lon;timestamp;P1;durP1;ratioP1;P2;durP2;ratioP2
14272;SDS011;7220;49.450;11.052;2023-05-10T07:58:29;2.85;;;1.90;;
14272;SDS011;7220;49.450;11.052;2023-05-10T08:02:30;3.65;;;1.48;;
14272;SDS011;7220;49.450;11.052;2023-05-10T08:06:30;1.67;;;1.58;;
14272;SDS011;7220;49.450;11.052;2023-05-10T08:10:30;2.63;;;1.30;;
14272;SDS011;7220;49.450;11.052;2023-05-10T08:14:31;1.95;;;1.75;;
14272;SDS011;7220;49.450;11.052;2023-05-10T08:18:31;3.72;;;1.88;;
14272;SDS011;7220;49.450;11.052;2023-05-10T08:22:32;3.00;;;1.83;;
14272;SDS011;7220;49.450;11.052;2023-05-10T08:26:32;4.20;;;2.05;;
14272;SDS011;7220;49.450;11.052;2023-05-10T08:30:32;2.58;;;1.80;;
14272;SDS011;7220;49.450;11.052;2023-05-10T08:34:33;2.38;;;2.17;;
14272;SDS011;7220;49.450;11.052;2023-05-10T08:38:33;3.00;;;2.05;;
14272;SDS011;7220;49.450;11.052;2023-05-10T08:42:34;3.58;;;2.13;;
14272;SDS011;7220;49.450;11.052;2023-05-10T08:46:37;2.30;;;1.77;;
14272;SDS011;7220;49.450;11.052;2023-05-10T08:50:43;1.92;;;1.80;;
14272;SDS011;7220;49.450;11.052;2023-05-10T08:54:44;1.83;;;1.73;;
14272;SDS011;7220;49.450;11.052;2023-05-10T08:58:45;5.50;;;2.40;;
14272;SDS011;7220;49.450;11.052;2023-05-10T09:02:45;3.65;;;2.42;;
14272;SDS011;7220;49.450;11.052;2023-05-10T09:06:47;5.70;;;2.88;;
14272;SDS011;7220;49.450;11.052;2023-05-10T09:10:48;5.28;;;3.45;;
14272;SDS011;7220;49.450;11.052;2023-05-10T09:14:48;3.92;;;2.83;;
14272;SDS011;7220;49.450;11.052;2023-05-10T09:18:52;5.53;;;3.03;;
14272;SDS011;7220;49.450;11.052;2023-05-10T09:22:52;7.37;;;3.53;;
14272;SDS011;7220;49.450;11.052;2023-05-10T09:26:52;3.20;;;2.70;;
14272;SDS011;7220;49.450;11.052;2023-05-10T09:30:53;3.75;;;3.22;;
14272;SDS011;7220;49.450;11.052;2023-05-10T09:34:55;4.43;;;3.17;;
14272;SDS011;7220;49.450;11.052;2023-05-10T09:38:55;6.55;;;3.40;;
14272;SDS011;7220;49.450;11.052;2023-05-10T09:42:57;5.65;;;3.78;;
14272;SDS011;7220;49.450;11.052;2023-05-10T09:47:02;3.80;;;3.50;;
14272;SDS011;7220;49.450;11.052;2023-05-10T09:51:02;4.03;;;3.63;;
14272;SDS011;7220;49.450;11.052;2023-05-10T09:55:03;4.53;;;3.60;;
14272;SDS011;7220;49.450;11.052;2023-05-10T09:59:04;8.43;;;3.70;;
14272;SDS011;7220;49.450;11.052;2023-05-10T10:03:06;4.07;;;2.33;;
14272;SDS011;7220;49.450;11.052;2023-05-10T10:07:11;4.82;;;2.40;;
14272;SDS011;7220;49.450;11.052;2023-05-10T10:11:12;2.63;;;2.00;;
14272;SDS011;7220;49.450;11.052;2023-05-10T10:15:12;3.65;;;2.45;;
14272;SDS011;7220;49.450;11.052;2023-05-10T10:19:13;2.50;;;2.30;;
14272;SDS011;7220;49.450;11.052;2023-05-10T10:23:13;3.92;;;2.45;;
14272;SDS011;7220;49.450;11.052;2023-05-10T10:27:22;1.80;;;1.70;;
14272;SDS011;7220;49.450;11.052;2023-05-10T10:35:27;3.60;;;2.00;;
14272;SDS011;7220;49.450;11.052;2023-05-10T10:39:29;1.77;;;1.65;;
14272;SDS011;7220;49.450;11.052;2023-05-10T10:43:30;1.67;;;1.50;;
14272;SDS011;7220;49.450;11.052;2023-05-10T10:47:31;1.90;;;1.70;;
14272;SDS011;7220;49.450;11.052;2023-05-10T10:51:40;2.75;;;1.70;;
14272;SDS011;7220;49.450;11.052;2023-05-10T10:56:12;1.80;;;1.52;;
14272;SDS011;7220;49.450;11.052;2023-05-10T11:00:30;2.55;;;1.90;;
14272;SDS011;7220;49.450;11.052;2023-05-10T11:04:40;1.70;;;1.48;;
14272;SDS011;7220;49.450;11.052;2023-05-10T11:08:43;1.83;;;1.40;;
14272;SDS011;7220;49.450;11.052;2023-05-10T11:12:51;2.75;;;1.70;;
14272;SDS011;7220;49.450;11.052;2023-05-10T11:17:01;3.03;;;1.85;;
14272;SDS011;7220;49.450;11.052;2023-05-10T11:21:01;2.47;;;1.48;;
14272;SDS011;7220;49.450;11.052;2023-05-10T11:25:05;1.88;;;1.77;;
14272;SDS011;7220;49.450;11.052;2023-05-10T11:29:06;2.45;;;1.80;;
14272;SDS011;7220;49.450;11.052;2023-05-10T11:33:07;1.90;;;1.80;;
14272;SDS011;7220;49.450;11.052;2023-05-10T11:37:08;2.92;;;1.90;;
14272;SDS011;7220;49.450;11.052;2023-05-10T11:41:09;2.10;;;1.87;;
14272;SDS011;7220;49.450;11.052;2023-05-10T11:45:12;3.10;;;1.88;;
14272;SDS011;7220;49.450;11.052;2023-05-10T11:49:13;1.98;;;1.77;;
14272;SDS011;7220;49.450;11.052;2023-05-10T11:53:13;2.40;;;2.20;;
14272;SDS011;7220;49.450;11.052;2023-05-10T11:57:13;2.38;;;1.90;;
14272;SDS011;7220;49.450;11.052;2023-05-10T12:01:14;3.33;;;2.05;;
14272;SDS011;7220;49.450;11.052;2023-05-10T12:05:14;3.25;;;1.92;;
14272;SDS011;7220;49.450;11.052;2023-05-10T12:09:15;6.75;;;2.60;;
14272;SDS011;7220;49.450;11.052;2023-05-10T12:13:16;4.60;;;2.25;;
14272;SDS011;7220;49.450;11.052;2023-05-10T12:17:16;2.40;;;2.13;;
14272;SDS011;7220;49.450;11.052;2023-05-10T12:21:17;2.30;;;2.00;;
14272;SDS011;7220;49.450;11.052;2023-05-10T12:25:19;5.18;;;2.22;;
14272;SDS011;7220;49.450;11.052;2023-05-10T12:29:20;3.78;;;1.92;;
14272;SDS011;7220;49.450;11.052;2023-05-10T12:33:21;1.83;;;1.70;;
14272;SDS011;7220;49.450;11.052;2023-05-10T12:37:23;4.50;;;1.87;;
14272;SDS011;7220;49.450;11.052;2023-05-10T12:41:27;1.58;;;1.45;;
14272;SDS011;7220;49.450;11.052;2023-05-10T12:45:27;3.00;;;1.53;;
14272;SDS011;7220;49.450;11.052;2023-05-10T12:49:29;2.10;;;1.58;;
14272;SDS011;7220;49.450;11.052;2023-05-10T12:53:30;1.95;;;1.63;;
14272;SDS011;7220;49.450;11.052;2023-05-10T12:57:31;1.50;;;1.40;;
14272;SDS011;7220;49.450;11.052;2023-05-10T13:01:31;2.33;;;1.50;;
14272;SDS011;7220;49.450;11.052;2023-05-10T13:05:34;3.20;;;1.60;;
14272;SDS011;7220;49.450;11.052;2023-05-10T13:09:35;3.30;;;2.15;;
14272;SDS011;7220;49.450;11.052;2023-05-10T13:13:35;2.42;;;1.70;;
14272;SDS011;7220;49.450;11.052;2023-05-10T13:17:36;2.47;;;2.27;;
14272;SDS011;7220;49.450;11.052;2023-05-10T13:21:38;1.83;;;1.60;;
14272;SDS011;7220;49.450;11.052;2023-05-10T13:25:40;4.57;;;1.70;;
14272;SDS011;7220;49.450;11.052;2023-05-10T13:29:41;1.97;;;1.80;;
14272;SDS011;7220;49.450;11.052;2023-05-10T13:33:41;2.87;;;1.60;;
14272;SDS011;7220;49.450;11.052;2023-05-10T13:37:41;1.80;;;1.37;;
14272;SDS011;7220;49.450;11.052;2023-05-10T13:41:42;1.75;;;1.35;;
14272;SDS011;7220;49.450;11.052;2023-05-10T13:45:42;1.60;;;1.50;;
14272;SDS011;7220;49.450;11.052;2023-05-10T13:49:42;1.70;;;1.60;;
14272;SDS011;7220;49.450;11.052;2023-05-10T13:53:42;3.50;;;2.30;;
14272;SDS011;7220;49.450;11.052;2023-05-10T13:57:43;4.95;;;1.77;;
14272;SDS011;7220;49.450;11.052;2023-05-10T14:01:43;2.45;;;1.50;;
14272;SDS011;7220;49.450;11.052;2023-05-10T14:05:44;2.95;;;1.23;;
14272;SDS011;7220;49.450;11.052;2023-05-10T14:09:45;1.83;;;1.30;;
14272;SDS011;7220;49.450;11.052;2023-05-10T14:13:45;2.13;;;1.20;;
14272;SDS011;7220;49.450;11.052;2023-05-10T14:17:45;1.40;;;1.27;;
14272;SDS011;7220;49.450;11.052;2023-05-10T14:21:46;2.07;;;1.53;;
14272;SDS011;7220;49.450;11.052;2023-05-10T14:25:46;2.40;;;1.30;;
14272;SDS011;7220;49.450;11.052;2023-05-10T14:29:47;2.07;;;1.80;;
14272;SDS011;7220;49.450;11.052;2023-05-10T14:33:47;1.77;;;1.50;;
14272;SDS011;7220;49.450;11.052;2023-05-10T14:37:47;2.07;;;1.67;;
14272;SDS011;7220;49.450;11.052;2023-05-10T14:41:48;1.67;;;1.58;;
14272;SDS011;7220;49.450;11.052;2023-05-10T14:45:48;1.98;;;1.70;;
14272;SDS011;7220;49.450;11.052;2023-05-10T14:49:48;1.65;;;1.52;;
14272;SDS011;7220;49.450;11.052;2023-05-10T14:53:49;2.73;;;1.83;;
14272;SDS011;7220;49.450;11.052;2023-05-10T14:57:49;3.00;;;2.05;;
14272;SDS011;7220;49.450;11.052;2023-05-10T15:01:50;3.25;;;1.80;;
14272;SDS011;7220;49.450;11.052;2023-05-10T15:05:51;1.83;;;1.70;;
14272;SDS011;7220;49.450;11.052;2023-05-10T15:09:51;3.58;;;1.70;;
14272;SDS011;7220;49.450;11.052;2023-05-10T15:13:52;2.08;;;1.70;;
14272;SDS011;7220;49.450;11.052;2023-05-10T15:17:53;3.40;;;1.42;;
14272;SDS011;7220;49.450;11.052;2023-05-10T15:21:53;1.67;;;1.10;;
14272;SDS011;7220;49.450;11.052;2023-05-10T15:25:53;1.60;;;1.10;;
14272;SDS011;7220;49.450;11.052;2023-05-10T15:29:55;1.20;;;1.10;;
14272;SDS011;7220;49.450;11.052;2023-05-10T15:33:56;0.95;;;0.95;;
14272;SDS011;7220;49.450;11.052;2023-05-10T15:37:58;3.05;;;1.27;;
14272;SDS011;7220;49.450;11.052;2023-05-10T15:41:59;1.50;;;1.40;;
14272;SDS011;7220;49.450;11.052;2023-05-10T15:45:59;1.38;;;1.10;;
14272;SDS011;7220;49.450;11.052;2023-05-10T15:49:59;3.10;;;1.33;;
14272;SDS011;7220;49.450;11.052;2023-05-10T15:54:00;1.33;;;1.20;;
14272;SDS011;7220;49.450;11.052;2023-05-10T15:58:01;2.05;;;1.55;;
14272;SDS011;7220;49.450;11.052;2023-05-10T16:02:02;2.22;;;1.30;;
14272;SDS011;7220;49.450;11.052;2023-05-10T16:06:03;2.90;;;1.48;;
14272;SDS011;7220;49.450;11.052;2023-05-10T16:10:03;2.25;;;1.80;;
14272;SDS011;7220;49.450;11.052;2023-05-10T16:14:05;2.03;;;1.90;;
14272;SDS011;7220;49.450;11.052;2023-05-10T16:18:05;2.88;;;1.80;;
14272;SDS011;7220;49.450;11.052;2023-05-10T16:22:06;1.70;;;1.60;;
14272;SDS011;7220;49.450;11.052;2023-05-10T16:26:06;3.28;;;2.13;;
14272;SDS011;7220;49.450;11.052;2023-05-10T16:30:07;3.13;;;2.03;;
14272;SDS011;7220;49.450;11.052;2023-05-10T16:34:08;3.53;;;2.10;;
14272;SDS011;7220;49.450;11.052;2023-05-10T16:38:08;2.45;;;2.20;;
14272;SDS011;7220;49.450;11.052;2023-05-10T16:42:09;2.13;;;1.90;;
14272;SDS011;7220;49.450;11.052;2023-05-10T16:46:10;2.03;;;1.92;;
14272;SDS011;7220;49.450;11.052;2023-05-10T16:50:11;2.35;;;2.03;;
14272;SDS011;7220;49.450;11.052;2023-05-10T16:54:11;4.25;;;2.60;;
14272;SDS011;7220;49.450;11.052;2023-05-10T16:58:11;5.40;;;4.90;;
14272;SDS011;7220;49.450;11.052;2023-05-10T17:02:12;2.63;;;2.30;;
14272;SDS011;7220;49.450;11.052;2023-05-10T17:06:13;3.40;;;3.10;;
14272;SDS011;7220;49.450;11.052;2023-05-10T17:10:13;3.03;;;2.77;;
14272;SDS011;7220;49.450;11.052;2023-05-10T17:14:14;6.57;;;4.35;;
14272;SDS011;7220;49.450;11.052;2023-05-10T17:18:14;4.47;;;4.07;;
14272;SDS011;7220;49.450;11.052;2023-05-10T17:22:15;2.80;;;2.45;;
14272;SDS011;7220;49.450;11.052;2023-05-10T17:26:15;3.90;;;2.63;;
14272;SDS011;7220;49.450;11.052;2023-05-10T17:30:16;6.15;;;4.78;;
14272;SDS011;7220;49.450;11.052;2023-05-10T17:34:21;4.40;;;2.42;;
14272;SDS011;7220;49.450;11.052;2023-05-10T17:38:21;2.80;;;2.20;;
14272;SDS011;7220;49.450;11.052;2023-05-10T17:42:21;4.93;;;3.07;;
14272;SDS011;7220;49.450;11.052;2023-05-10T17:46:22;4.93;;;2.90;;
14272;SDS011;7220;49.450;11.052;2023-05-10T17:50:22;6.00;;;3.93;;
14272;SDS011;7220;49.450;11.052;2023-05-10T17:54:22;2.72;;;2.20;;
14272;SDS011;7220;49.450;11.052;2023-05-10T17:58:26;2.45;;;2.22;;
14272;SDS011;7220;49.450;11.052;2023-05-10T18:02:26;2.35;;;2.15;;
14272;SDS011;7220;49.450;11.052;2023-05-10T18:06:27;3.93;;;3.23;;
14272;SDS011;7220;49.450;11.052;2023-05-10T18:10:27;4.60;;;3.45;;
14272;SDS011;7220;49.450;11.052;2023-05-10T18:14:27;3.13;;;2.83;;
14272;SDS011;7220;49.450;11.052;2023-05-10T18:18:28;4.70;;;2.83;;
14272;SDS011;7220;49.450;11.052;2023-05-10T18:22:28;4.05;;;3.65;;
14272;SDS011;7220;49.450;11.052;2023-05-10T18:26:28;3.63;;;2.90;;
14272;SDS011;7220;49.450;11.052;2023-05-10T18:30:29;4.25;;;3.85;;
14272;SDS011;7220;49.450;11.052;2023-05-10T18:34:29;3.47;;;3.17;;
14272;SDS011;7220;49.450;11.052;2023-05-10T18:38:29;2.63;;;2.42;;
14272;SDS011;7220;49.450;11.052;2023-05-10T18:42:30;5.25;;;4.05;;
14272;SDS011;7220;49.450;11.052;2023-05-10T18:46:30;4.00;;;2.75;;
14272;SDS011;7220;49.450;11.052;2023-05-10T18:50:31;6.68;;;4.80;;
14272;SDS011;7220;49.450;11.052;2023-05-10T18:54:31;5.78;;;4.93;;
14272;SDS011;7220;49.450;11.052;2023-05-10T18:58:31;3.72;;;3.42;;
14272;SDS011;7220;49.450;11.052;2023-05-10T19:02:38;2.83;;;2.55;;
14272;SDS011;7220;49.450;11.052;2023-05-10T19:06:39;2.80;;;2.60;;
14272;SDS011;7220;49.450;11.052;2023-05-10T19:10:40;3.55;;;3.30;;
14272;SDS011;7220;49.450;11.052;2023-05-10T19:14:41;2.60;;;2.20;;
14272;SDS011;7220;49.450;11.052;2023-05-10T19:18:41;4.90;;;2.40;;
14272;SDS011;7220;49.450;11.052;2023-05-10T19:22:42;6.40;;;2.55;;
14272;SDS011;7220;49.450;11.052;2023-05-10T19:26:42;3.80;;;2.77;;
14272;SDS011;7220;49.450;11.052;2023-05-10T19:30:43;5.60;;;3.00;;
14272;SDS011;7220;49.450;11.052;2023-05-10T19:34:43;4.78;;;3.92;;
14272;SDS011;7220;49.450;11.052;2023-05-10T19:38:44;6.87;;;4.03;;
14272;SDS011;7220;49.450;11.052;2023-05-10T19:42:44;6.07;;;4.25;;
14272;SDS011;7220;49.450;11.052;2023-05-10T19:46:44;4.57;;;3.60;;
14272;SDS011;7220;49.450;11.052;2023-05-10T19:50:45;3.45;;;3.15;;
14272;SDS011;7220;49.450;11.052;2023-05-10T19:54:45;3.70;;;3.33;;
14272;SDS011;7220;49.450;11.052;2023-05-10T19:58:45;4.45;;;4.03;;
14272;SDS011;7220;49.450;11.052;2023-05-10T20:02:45;5.93;;;4.97;;
14272;SDS011;7220;49.450;11.052;2023-05-10T20:06:46;6.97;;;4.87;;
14272;SDS011;7220;49.450;11.052;2023-05-10T20:10:46;5.72;;;4.57;;
14272;SDS011;7220;49.450;11.052;2023-05-10T20:14:46;4.50;;;4.10;;
14272;SDS011;7220;49.450;11.052;2023-05-10T20:18:47;4.33;;;4.00;;
14272;SDS011;7220;49.450;11.052;2023-05-10T20:22:47;4.82;;;4.22;;
14272;SDS011;7220;49.450;11.052;2023-05-10T20:26:47;4.90;;;4.18;;
14272;SDS011;7220;49.450;11.052;2023-05-10T20:30:50;5.80;;;4.10;;
14272;SDS011;7220;49.450;11.052;2023-05-10T20:34:52;4.93;;;4.43;;
14272;SDS011;7220;49.450;11.052;2023-05-10T20:38:52;6.03;;;5.37;;
14272;SDS011;7220;49.450;11.052;2023-05-10T20:42:52;5.43;;;4.93;;
14272;SDS011;7220;49.450;11.052;2023-05-10T20:46:53;4.82;;;4.28;;
14272;SDS011;7220;49.450;11.052;2023-05-10T20:50:53;3.90;;;3.60;;
14272;SDS011;7220;49.450;11.052;2023-05-10T20:54:53;5.17;;;4.67;;
14272;SDS011;7220;49.450;11.052;2023-05-10T20:58:54;5.70;;;4.60;;
14272;SDS011;7220;49.450;11.052;2023-05-10T21:02:54;7.40;;;4.50;;
14272;SDS011;7220;49.450;11.052;2023-05-10T21:06:54;5.57;;;4.40;;
14272;SDS011;7220;49.450;11.052;2023-05-10T21:10:55;5.60;;;4.88;;
14272;SDS011;7220;49.450;11.052;2023-05-10T21:14:56;4.35;;;3.95;;
14272;SDS011;7220;49.450;11.052;2023-05-10T21:18:56;5.93;;;3.92;;
14272;SDS011;7220;49.450;11.052;2023-05-10T21:22:56;4.73;;;4.00;;
14272;SDS011;7220;49.450;11.052;2023-05-10T21:26:57;6.72;;;4.20;;
14272;SDS011;7220;49.450;11.052;2023-05-10T21:30:57;5.80;;;4.10;;
14272;SDS011;7220;49.450;11.052;2023-05-10T21:34:57;5.95;;;4.03;;
14272;SDS011;7220;49.450;11.052;2023-05-10T21:38:58;5.35;;;4.60;;
14272;SDS011;7220;49.450;11.052;2023-05-10T21:42:58;4.63;;;4.23;;
14272;SDS011;7220;49.450;11.052;2023-05-10T21:46:58;5.22;;;3.70;;
14272;SDS011;7220;49.450;11.052;2023-05-10T21:50:59;4.77;;;3.97;;
14272;SDS011;7220;49.450;11.052;2023-05-10T21:55:00;4.43;;;4.03;;
14272;SDS011;7220;49.450;11.052;2023-05-10T21:59:01;4.35;;;3.95;;
14272;SDS011;7220;49.450;11.052;2023-05-10T22:03:01;6.53;;;4.93;;
14272;SDS011;7220;49.450;11.052;2023-05-10T22:07:01;6.18;;;4.40;;
14272;SDS011;7220;49.450;11.052;2023-05-10T22:11:02;3.83;;;3.53;;
14272;SDS011;7220;49.450;11.052;2023-05-10T22:15:02;6.32;;;3.80;;
14272;SDS011;7220;49.450;11.052;2023-05-10T22:19:03;4.85;;;4.03;;
14272;SDS011;7220;49.450;11.052;2023-05-10T22:23:03;5.13;;;4.22;;
14272;SDS011;7220;49.450;11.052;2023-05-10T22:27:04;5.10;;;4.20;;
14272;SDS011;7220;49.450;11.052;2023-05-10T22:31:08;5.15;;;4.15;;
14272;SDS011;7220;49.450;11.052;2023-05-10T22:35:09;4.30;;;3.90;;
14272;SDS011;7220;49.450;11.052;2023-05-10T22:39:10;4.53;;;3.85;;
14272;SDS011;7220;49.450;11.052;2023-05-10T22:43:10;4.60;;;3.80;;
14272;SDS011;7220;49.450;11.052;2023-05-10T22:47:11;6.80;;;5.18;;
14272;SDS011;7220;49.450;11.052;2023-05-10T22:51:11;4.10;;;3.80;;
14272;SDS011;7220;49.450;11.052;2023-05-10T22:55:12;4.38;;;3.97;;
14272;SDS011;7220;49.450;11.052;2023-05-10T22:59:12;6.00;;;3.95;;
14272;SDS011;7220;49.450;11.052;2023-05-10T23:03:13;4.13;;;3.83;;
14272;SDS011;7220;49.450;11.052;2023-05-10T23:07:13;4.20;;;3.80;;
14272;SDS011;7220;49.450;11.052;2023-05-10T23:11:13;4.67;;;3.97;;
14272;SDS011;7220;49.450;11.052;2023-05-10T23:15:14;4.75;;;4.18;;
14272;SDS011;7220;49.450;11.052;2023-05-10T23:19:14;4.93;;;4.38;;
14272;SDS011;7220;49.450;11.052;2023-05-10T23:23:15;3.87;;;3.47;;
14272;SDS011;7220;49.450;11.052;2023-05-10T23:27:15;4.07;;;3.65;;
14272;SDS011;7220;49.450;11.052;2023-05-10T23:31:15;4.30;;;3.90;;
14272;SDS011;7220;49.450;11.052;2023-05-10T23:35:16;6.03;;;4.37;;
14272;SDS011;7220;49.450;11.052;2023-05-10T23:39:16;5.75;;;4.25;;
14272;SDS011;7220;49.450;11.052;2023-05-10T23:43:16;5.05;;;4.10;;
14272;SDS011;7220;49.450;11.052;2023-05-10T23:47:18;4.68;;;4.13;;
14272;SDS011;7220;49.450;11.052;2023-05-10T23:51:18;5.50;;;4.40;;
14272;SDS011;7220;49.450;11.052;2023-05-10T23:55:19;6.97;;;4.70;;
14272;SDS011;7220;49.450;11.052;2023-05-10T23:59:19;6.38;;;4.93;;
